createdAt,value
2023-03-18T00:01:01.476Z,12.00
2023-03-18T00:03:30.706Z,12.00
2023-03-18T00:06:07.766Z,12.00
2023-03-18T00:08:37.645Z,12.00
2023-03-18T00:11:06.627Z,12.00
2023-03-18T00:13:35.476Z,11.90
2023-03-18T00:16:07.447Z,11.90
2023-03-18T00:18:35.702Z,11.90
2023-03-18T00:21:04.961Z,11.90
2023-03-18T00:23:34.508Z,11.90
2023-03-18T00:26:03.960Z,11.90
2023-03-18T00:28:33.134Z,11.90
2023-03-18T00:31:08.682Z,11.90
2023-03-18T00:33:38.476Z,11.90
2023-03-18T00:36:10.160Z,11.90
2023-03-18T00:38:39.226Z,11.90
2023-03-18T00:41:12.569Z,11.90
2023-03-18T00:43:47.392Z,11.90
2023-03-18T00:46:19.863Z,11.90
2023-03-18T00:48:48.562Z,11.90
2023-03-18T00:51:18.221Z,11.90
2023-03-18T00:53:48.883Z,11.90
2023-03-18T00:56:19.415Z,11.90
2023-03-18T00:58:48.096Z,11.80
2023-03-18T01:01:18.231Z,11.90
2023-03-18T01:03:48.211Z,11.90
2023-03-18T01:06:19.553Z,11.90
2023-03-18T01:08:47.698Z,11.90
2023-03-18T01:11:16.695Z,11.90
2023-03-18T01:13:46.406Z,11.90
2023-03-18T01:16:15.338Z,11.90
2023-03-18T01:18:45.587Z,11.90
2023-03-18T01:21:15.100Z,11.90
2023-03-18T01:23:43.669Z,11.90
2023-03-18T01:26:13.079Z,11.90
2023-03-18T01:28:41.740Z,11.90
2023-03-18T01:31:10.516Z,11.90
2023-03-18T01:33:38.621Z,11.90
2023-03-18T01:36:09.999Z,11.90
2023-03-18T01:38:38.537Z,12.00
2023-03-18T01:41:07.205Z,11.90
2023-03-18T01:43:39.262Z,12.00
2023-03-18T01:46:35.503Z,12.00
2023-03-18T01:49:07.598Z,12.00
2023-03-18T01:51:37.963Z,12.00
2023-03-18T01:54:09.526Z,12.00
2023-03-18T01:56:40.091Z,12.00
2023-03-18T01:59:11.088Z,11.90
2023-03-18T02:01:43.874Z,11.90
2023-03-18T02:04:13.189Z,11.90
2023-03-18T02:06:43.168Z,11.80
2023-03-18T02:09:11.712Z,11.80
2023-03-18T02:11:43.813Z,11.70
2023-03-18T02:14:16.495Z,11.70
2023-03-18T02:16:48.886Z,11.60
2023-03-18T02:19:41.642Z,11.60
2023-03-18T02:22:19.572Z,11.60
2023-03-18T02:24:57.325Z,11.50
2023-03-18T02:27:29.486Z,11.50
2023-03-18T02:30:00.530Z,11.50
2023-03-18T02:32:30.678Z,11.50
2023-03-18T02:35:02.003Z,11.50
2023-03-18T02:37:30.576Z,11.50
2023-03-18T02:40:15.421Z,11.50
2023-03-18T02:42:45.993Z,11.50
2023-03-18T02:45:35.850Z,11.50
2023-03-18T02:48:08.686Z,11.50
2023-03-18T02:50:36.857Z,11.50
2023-03-18T02:53:06.034Z,11.50
2023-03-18T02:55:34.100Z,11.40
2023-03-18T02:58:04.024Z,11.40
2023-03-18T03:00:32.302Z,11.40
2023-03-18T03:03:02.184Z,11.30
2023-03-18T03:05:30.584Z,11.20
2023-03-18T03:07:58.722Z,11.10
2023-03-18T03:10:27.396Z,11.10
2023-03-18T03:12:56.679Z,11.00
2023-03-18T03:15:27.117Z,11.00
2023-03-18T03:17:55.283Z,10.90
2023-03-18T03:20:24.178Z,10.90
2023-03-18T03:22:53.292Z,10.90
2023-03-18T03:25:22.899Z,10.90
2023-03-18T03:27:51.104Z,10.80
2023-03-18T03:30:19.872Z,10.80
2023-03-18T03:32:49.378Z,10.80
2023-03-18T03:35:20.588Z,10.70
2023-03-18T03:37:49.109Z,10.70
2023-03-18T03:40:20.537Z,10.60
2023-03-18T03:42:49.494Z,10.60
2023-03-18T03:45:19.716Z,10.50
2023-03-18T03:47:49.708Z,10.50
2023-03-18T03:50:20.430Z,10.40
2023-03-18T03:52:49.295Z,10.40
2023-03-18T03:55:20.968Z,10.30
2023-03-18T03:57:49.386Z,10.30
2023-03-18T04:00:21.274Z,10.20
2023-03-18T04:02:52.743Z,10.20
2023-03-18T04:05:23.098Z,10.20
2023-03-18T04:07:51.986Z,10.10
2023-03-18T04:10:23.074Z,10.10
2023-03-18T04:12:52.066Z,10.10
2023-03-18T04:15:22.353Z,10.00
2023-03-18T04:17:52.418Z,10.00
2023-03-18T04:20:20.977Z,10.00
2023-03-18T04:22:49.792Z,10.00
2023-03-18T04:25:18.438Z,9.90
2023-03-18T04:27:46.789Z,10.00
2023-03-18T04:30:15.958Z,10.00
2023-03-18T04:32:44.143Z,9.90
2023-03-18T04:35:14.736Z,10.00
2023-03-18T04:37:43.153Z,9.90
2023-03-18T04:40:13.591Z,9.90
2023-03-18T04:42:41.781Z,9.90
2023-03-18T04:45:11.152Z,9.90
2023-03-18T04:47:39.316Z,9.90
2023-03-18T04:50:11.476Z,9.90
2023-03-18T04:52:41.989Z,9.90
2023-03-18T04:55:11.378Z,9.80
2023-03-18T04:57:40.335Z,9.80
2023-03-18T05:00:11.603Z,9.80
2023-03-18T05:02:41.148Z,9.80
2023-03-18T05:05:11.102Z,9.80
2023-03-18T05:07:40.619Z,9.80
2023-03-18T05:10:10.772Z,9.80
2023-03-18T05:12:39.178Z,9.80
2023-03-18T05:15:10.929Z,9.80
2023-03-18T05:17:40.923Z,9.80
2023-03-18T05:20:10.946Z,9.70
2023-03-18T05:22:40.621Z,9.70
2023-03-18T05:25:11.995Z,9.60
2023-03-18T05:27:40.635Z,9.60
2023-03-18T05:30:11.035Z,9.50
2023-03-18T05:32:39.222Z,9.50
2023-03-18T05:35:08.462Z,9.40
2023-03-18T05:37:36.843Z,9.40
2023-03-18T05:40:10.415Z,9.40
2023-03-18T05:42:54.921Z,9.30
2023-03-18T05:45:23.879Z,9.30
2023-03-18T05:47:52.791Z,9.30
2023-03-18T05:50:30.072Z,9.30
2023-03-18T05:52:58.931Z,9.30
2023-03-18T05:55:29.546Z,9.20
2023-03-18T05:57:59.520Z,9.20
2023-03-18T06:00:30.555Z,9.20
2023-03-18T06:02:59.693Z,9.20
2023-03-18T06:05:28.725Z,9.20
2023-03-18T06:07:57.323Z,9.20
2023-03-18T06:10:26.266Z,9.20
2023-03-18T06:12:56.958Z,9.20
2023-03-18T06:15:25.760Z,9.20
2023-03-18T06:17:54.420Z,9.20
2023-03-18T06:20:23.447Z,9.20
2023-03-18T06:22:52.229Z,9.20
2023-03-18T06:25:22.319Z,9.10
2023-03-18T06:27:51.531Z,9.10
2023-03-18T06:30:22.038Z,9.10
2023-03-18T06:32:50.195Z,9.10
2023-03-18T06:35:19.429Z,9.10
2023-03-18T06:37:48.575Z,9.10
2023-03-18T06:40:17.923Z,9.10
2023-03-18T06:42:46.710Z,9.10
2023-03-18T06:45:15.808Z,9.10
2023-03-18T06:47:47.073Z,9.10
2023-03-18T06:50:15.857Z,9.10
2023-03-18T06:52:44.502Z,9.10
2023-03-18T06:55:13.129Z,9.20
2023-03-18T06:57:42.040Z,9.20
2023-03-18T07:00:11.947Z,9.20
2023-03-18T07:02:41.262Z,9.20
2023-03-18T07:05:12.802Z,9.20
2023-03-18T07:07:42.560Z,9.30
2023-03-18T07:10:17.196Z,9.30
2023-03-18T07:12:45.793Z,9.30
2023-03-18T07:15:14.156Z,9.30
2023-03-18T07:17:42.750Z,11.10
2023-03-18T07:20:13.626Z,9.40
2023-03-18T07:22:42.880Z,9.40
2023-03-18T07:25:11.561Z,9.40
2023-03-18T07:27:40.499Z,9.40
2023-03-18T07:30:10.615Z,9.50
2023-03-18T07:32:39.967Z,9.50
2023-03-18T07:35:11.375Z,9.60
2023-03-18T07:37:41.677Z,9.60
2023-03-18T07:40:12.244Z,9.70
2023-03-18T07:42:40.842Z,9.70
2023-03-18T07:45:10.514Z,9.80
2023-03-18T07:47:39.302Z,9.90
2023-03-18T07:50:08.920Z,9.90
2023-03-18T07:52:37.965Z,9.90
2023-03-18T07:55:09.257Z,10.00
2023-03-18T07:57:38.398Z,10.00
2023-03-18T08:00:08.216Z,10.10
2023-03-18T08:02:36.881Z,10.20
2023-03-18T08:05:06.931Z,10.20
2023-03-18T08:07:36.134Z,10.30
2023-03-18T08:10:04.714Z,10.30
2023-03-18T08:12:51.015Z,10.30
2023-03-18T08:15:21.090Z,10.40
2023-03-18T08:17:49.200Z,10.50
2023-03-18T08:20:18.080Z,10.50
2023-03-18T08:22:46.910Z,10.60
2023-03-18T08:25:15.500Z,10.60
2023-03-18T08:27:44.995Z,10.70
2023-03-18T08:30:15.647Z,10.70
2023-03-18T08:32:44.327Z,10.80
2023-03-18T08:35:13.865Z,10.80
2023-03-18T08:37:42.625Z,10.90
2023-03-18T08:40:12.619Z,10.90
2023-03-18T08:42:41.288Z,11.00
2023-03-18T08:45:12.846Z,11.10
2023-03-18T08:47:41.441Z,11.10
2023-03-18T08:50:11.015Z,11.10
2023-03-18T08:52:40.269Z,11.20
2023-03-18T08:55:09.720Z,11.20
2023-03-18T08:57:38.964Z,11.30
2023-03-18T09:00:08.957Z,11.30
2023-03-18T09:02:38.544Z,11.40
2023-03-18T09:05:08.148Z,11.50
2023-03-18T09:07:36.304Z,11.50
2023-03-18T09:10:04.999Z,11.60
2023-03-18T09:12:33.589Z,11.60
2023-03-18T09:15:02.137Z,11.70
2023-03-18T09:17:46.888Z,11.80
2023-03-18T09:20:20.746Z,11.80
2023-03-18T09:22:51.445Z,11.90
2023-03-18T09:25:19.876Z,12.00
2023-03-18T09:27:48.619Z,12.00
2023-03-18T09:30:17.435Z,12.00
2023-03-18T09:32:45.714Z,12.10
2023-03-18T09:35:14.260Z,12.20
2023-03-18T09:37:43.968Z,12.20
2023-03-18T09:40:20.155Z,12.30
2023-03-18T09:42:59.263Z,12.30
2023-03-18T09:45:32.146Z,12.40
2023-03-18T09:48:15.031Z,12.50
2023-03-18T09:50:48.997Z,12.50
2023-03-18T09:53:24.975Z,12.60
2023-03-18T09:55:56.961Z,12.60
2023-03-18T09:58:28.767Z,12.60
2023-03-18T10:01:02.262Z,12.70
2023-03-18T10:03:37.527Z,12.80
2023-03-18T10:06:09.694Z,12.80
2023-03-18T10:08:49.440Z,12.90
2023-03-18T10:11:32.189Z,12.90
2023-03-18T10:14:22.469Z,13.00
2023-03-18T10:16:59.486Z,13.00
2023-03-18T10:19:28.712Z,13.10
2023-03-18T10:22:12.485Z,13.10
2023-03-18T10:24:49.131Z,13.20
2023-03-18T10:27:23.044Z,13.30
2023-03-18T10:29:59.852Z,13.40
2023-03-18T10:32:49.194Z,13.40
2023-03-18T10:35:27.959Z,13.50
2023-03-18T10:38:02.300Z,13.70
2023-03-18T10:40:37.175Z,13.70
2023-03-18T10:43:05.718Z,13.80
2023-03-18T10:45:36.020Z,13.90
2023-03-18T10:48:11.333Z,14.00
2023-03-18T10:50:44.127Z,14.10
2023-03-18T10:53:18.936Z,14.20
2023-03-18T10:56:00.562Z,14.30
2023-03-18T10:58:30.591Z,14.40
2023-03-18T11:00:59.822Z,14.50
2023-03-18T11:03:30.800Z,14.60
2023-03-18T11:06:04.321Z,14.80
2023-03-18T11:08:35.880Z,14.90
2023-03-18T11:11:17.593Z,15.00
2023-03-18T11:13:53.316Z,15.20
2023-03-18T11:16:30.611Z,15.30
2023-03-18T11:19:00.145Z,15.50
2023-03-18T11:21:29.874Z,15.60
2023-03-18T11:24:21.491Z,15.80
2023-03-18T11:26:56.064Z,15.90
2023-03-18T11:29:33.131Z,16.10
2023-03-18T11:32:03.132Z,16.30
2023-03-18T11:34:36.989Z,16.40
2023-03-18T11:37:08.856Z,16.50
2023-03-18T11:39:41.129Z,16.70
2023-03-18T11:42:33.143Z,16.80
2023-03-18T11:45:22.563Z,16.90
2023-03-18T11:47:50.907Z,17.10
2023-03-18T11:50:21.773Z,17.20
2023-03-18T11:52:59.127Z,17.30
2023-03-18T11:55:39.880Z,17.50
2023-03-18T11:58:51.904Z,17.60
2023-03-18T12:01:27.728Z,17.80
2023-03-18T12:04:22.443Z,17.90
2023-03-18T12:07:01.461Z,18.00
2023-03-18T12:09:35.494Z,18.20
2023-03-18T12:12:21.102Z,18.30
2023-03-18T12:14:59.376Z,18.40
2023-03-18T12:17:38.190Z,18.60
2023-03-18T12:20:32.614Z,18.70
2023-03-18T12:23:06.899Z,18.90
2023-03-18T12:25:55.937Z,19.00
2023-03-18T12:28:36.749Z,19.10
2023-03-18T12:31:41.544Z,19.20
2023-03-18T12:34:23.599Z,19.30
2023-03-18T12:37:05.830Z,19.50
2023-03-18T12:40:13.259Z,19.60
2023-03-18T12:42:55.670Z,19.70
2023-03-18T12:45:28.581Z,19.80
2023-03-18T12:48:03.440Z,19.90
2023-03-18T12:50:39.754Z,20.00
2023-03-18T12:53:16.618Z,20.20
2023-03-18T12:55:48.818Z,20.30
2023-03-18T12:58:19.956Z,20.50
2023-03-18T13:00:52.898Z,20.60
2023-03-18T13:03:34.055Z,20.80
2023-03-18T13:06:05.362Z,20.90
2023-03-18T13:09:01.061Z,21.10
2023-03-18T13:11:50.488Z,21.20
2023-03-18T13:14:25.883Z,21.40
2023-03-18T13:16:56.518Z,21.60
2023-03-18T13:19:26.588Z,21.70
2023-03-18T13:22:04.250Z,21.90
2023-03-18T13:24:54.558Z,22.00
2023-03-18T13:27:41.839Z,22.20
2023-03-18T13:30:19.940Z,22.30
2023-03-18T13:33:07.891Z,22.50
2023-03-18T13:36:18.988Z,22.60
2023-03-18T13:39:18.265Z,22.80
2023-03-18T13:42:11.900Z,23.00
2023-03-18T13:44:45.704Z,23.10
2023-03-18T13:47:19.197Z,23.20
2023-03-18T13:49:48.569Z,23.30
2023-03-18T13:52:35.956Z,23.40
2023-03-18T13:55:09.352Z,23.40
2023-03-18T13:57:48.923Z,23.50
2023-03-18T14:00:32.129Z,23.50
2023-03-18T14:03:16.537Z,23.50
2023-03-18T14:05:47.327Z,23.60
2023-03-18T14:08:37.612Z,23.60
2023-03-18T14:11:44.779Z,23.60
2023-03-18T14:15:08.516Z,23.70
2023-03-18T14:17:48.630Z,23.70
2023-03-18T14:20:39.936Z,23.70
2023-03-18T14:23:35.071Z,23.70
2023-03-18T14:26:08.152Z,23.60
2023-03-18T14:28:47.737Z,23.50
2023-03-18T14:31:31.735Z,23.50
2023-03-18T14:34:25.522Z,23.40
2023-03-18T14:37:27.187Z,23.40
2023-03-18T14:40:00.062Z,23.40
2023-03-18T14:42:38.598Z,23.30
2023-03-18T14:45:14.094Z,23.30
2023-03-18T14:47:47.262Z,23.30
2023-03-18T14:50:20.340Z,23.20
2023-03-18T14:52:54.756Z,23.10
2023-03-18T14:55:27.092Z,23.00
2023-03-18T14:57:57.168Z,23.00
2023-03-18T15:00:26.169Z,22.80
2023-03-18T15:03:01.911Z,22.80
2023-03-18T15:05:35.697Z,22.70
2023-03-18T15:08:09.478Z,22.60
2023-03-18T15:10:39.208Z,22.50
2023-03-18T15:13:13.070Z,22.40
2023-03-18T15:15:42.674Z,22.40
2023-03-18T15:18:21.820Z,22.30
2023-03-18T15:20:54.611Z,22.30
2023-03-18T15:23:29.221Z,22.40
2023-03-18T15:25:57.732Z,22.50
2023-03-18T15:28:30.500Z,22.60
2023-03-18T15:31:01.066Z,22.60
2023-03-18T15:33:35.793Z,22.70
2023-03-18T15:36:07.144Z,22.70
2023-03-18T15:38:36.200Z,22.70
2023-03-18T15:41:07.414Z,22.60
2023-03-18T15:43:42.724Z,22.60
2023-03-18T15:46:19.280Z,22.50
2023-03-18T15:48:54.660Z,22.50
2023-03-18T15:51:31.575Z,22.40
2023-03-18T15:54:05.828Z,22.40
2023-03-18T15:56:36.614Z,22.40
2023-03-18T15:59:09.168Z,22.30
2023-03-18T16:01:37.886Z,22.30
2023-03-18T16:04:10.725Z,22.30
2023-03-18T16:06:40.394Z,22.20
2023-03-18T16:09:20.112Z,22.20
2023-03-18T16:11:51.750Z,22.10
2023-03-18T16:14:22.767Z,22.00
2023-03-18T16:16:51.646Z,21.90
2023-03-18T16:19:25.162Z,21.80
2023-03-18T16:21:53.563Z,21.70
2023-03-18T16:24:22.378Z,21.60
2023-03-18T16:26:51.081Z,21.50
2023-03-18T16:29:28.640Z,21.40
2023-03-18T16:31:57.125Z,21.30
2023-03-18T16:34:26.100Z,21.20
2023-03-18T16:36:54.497Z,21.10
2023-03-18T16:39:25.541Z,21.00
2023-03-18T16:41:53.745Z,20.90
2023-03-18T16:44:24.982Z,20.80
2023-03-18T16:46:55.406Z,20.70
2023-03-18T16:49:28.024Z,20.70
2023-03-18T16:51:57.024Z,20.60
2023-03-18T16:54:26.477Z,20.50
2023-03-18T16:56:57.516Z,20.40
2023-03-18T16:59:30.485Z,20.30
2023-03-18T17:01:58.671Z,20.20
2023-03-18T17:04:29.798Z,20.10
2023-03-18T17:06:59.141Z,20.10
2023-03-18T17:09:28.164Z,20.00
2023-03-18T17:11:59.210Z,19.90
2023-03-18T17:14:35.179Z,19.80
2023-03-18T17:17:07.052Z,19.80
2023-03-18T17:19:35.982Z,19.70
2023-03-18T17:22:08.032Z,19.60
2023-03-18T17:24:36.090Z,19.50
2023-03-18T17:27:06.461Z,19.50
2023-03-18T17:29:36.033Z,19.40
2023-03-18T17:32:04.601Z,19.30
2023-03-18T17:34:33.299Z,19.30
2023-03-18T17:37:01.398Z,19.20
2023-03-18T17:39:29.955Z,19.20
2023-03-18T17:41:58.210Z,19.10
2023-03-18T17:44:30.060Z,19.10
2023-03-18T17:46:59.993Z,19.00
2023-03-18T17:49:28.833Z,18.90
2023-03-18T17:51:57.808Z,18.90
2023-03-18T17:54:27.646Z,18.80
2023-03-18T17:56:56.195Z,18.80
2023-03-18T17:59:24.830Z,18.80
2023-03-18T18:01:53.496Z,18.70
2023-03-18T18:04:24.830Z,18.70
2023-03-18T18:06:53.529Z,18.60
2023-03-18T18:09:22.606Z,18.60
2023-03-18T18:11:51.026Z,18.50
2023-03-18T18:14:22.872Z,18.50
2023-03-18T18:16:51.609Z,18.50
2023-03-18T18:19:19.733Z,18.40
2023-03-18T18:21:50.816Z,18.40
2023-03-18T18:24:23.095Z,18.40
2023-03-18T18:26:51.737Z,18.30
2023-03-18T18:29:22.307Z,18.30
2023-03-18T18:31:50.966Z,18.30
2023-03-18T18:34:20.182Z,18.20
2023-03-18T18:36:50.810Z,18.20
2023-03-18T18:39:19.628Z,18.20
2023-03-18T18:41:47.757Z,18.10
2023-03-18T18:44:15.923Z,18.10
2023-03-18T18:46:44.133Z,18.10
2023-03-18T18:49:22.753Z,18.00
2023-03-18T18:51:55.230Z,18.00
2023-03-18T18:54:23.327Z,18.00
2023-03-18T18:56:52.240Z,17.90
2023-03-18T18:59:24.861Z,17.90
2023-03-18T19:01:53.745Z,17.90
2023-03-18T19:04:22.912Z,17.90
2023-03-18T19:06:53.804Z,17.80
2023-03-18T19:09:24.432Z,17.80
2023-03-18T19:11:54.081Z,17.70
2023-03-18T19:14:24.659Z,17.70
2023-03-18T19:16:53.766Z,17.70
2023-03-18T19:19:28.220Z,17.70
2023-03-18T19:21:59.324Z,17.60
2023-03-18T19:27:16.839Z,17.60
2023-03-18T19:29:47.343Z,17.50
2023-03-18T19:32:18.838Z,17.50
2023-03-18T19:34:47.669Z,17.40
2023-03-18T19:37:18.745Z,17.40
2023-03-18T19:39:47.123Z,17.40
2023-03-18T19:42:19.182Z,17.30
2023-03-18T19:44:47.838Z,17.30
2023-03-18T19:47:23.837Z,17.30
2023-03-18T19:49:52.559Z,17.30
2023-03-18T19:52:23.297Z,17.20
2023-03-18T19:54:52.547Z,17.20
2023-03-18T19:57:26.143Z,17.20
2023-03-18T19:59:56.426Z,17.20
2023-03-18T20:02:27.144Z,17.10
2023-03-18T20:04:58.057Z,17.10
2023-03-18T20:07:27.550Z,17.10
2023-03-18T20:09:56.758Z,17.10
2023-03-18T20:12:37.302Z,17.00
2023-03-18T20:15:06.363Z,17.00
2023-03-18T20:17:40.382Z,17.00
2023-03-18T20:20:13.678Z,17.00
2023-03-18T20:22:46.831Z,16.90
2023-03-18T20:25:21.720Z,16.90
2023-03-18T20:27:53.620Z,16.90
2023-03-18T20:30:28.815Z,16.90
2023-03-18T20:32:57.568Z,16.80
2023-03-18T20:35:29.376Z,16.80
2023-03-18T20:37:59.367Z,16.80
2023-03-18T20:40:29.669Z,16.80
2023-03-18T20:42:59.297Z,16.70
2023-03-18T20:45:27.441Z,16.70
2023-03-18T20:47:56.676Z,16.70
2023-03-18T20:50:30.298Z,16.70
2023-03-18T20:52:59.151Z,16.60
2023-03-18T20:55:31.449Z,16.60
2023-03-18T20:58:01.821Z,16.60
2023-03-18T21:00:33.312Z,16.60
2023-03-18T21:03:03.457Z,16.50
2023-03-18T21:05:32.245Z,16.50
2023-03-18T21:08:00.526Z,16.50
2023-03-18T21:10:29.339Z,16.40
2023-03-18T21:12:57.424Z,16.40
2023-03-18T21:15:29.362Z,16.40
2023-03-18T21:17:57.455Z,16.40
2023-03-18T21:20:30.096Z,16.30
2023-03-18T21:22:58.681Z,16.30
2023-03-18T21:25:28.209Z,16.30
2023-03-18T21:27:56.746Z,16.20
2023-03-18T21:30:26.211Z,16.20
2023-03-18T21:32:54.520Z,16.20
2023-03-18T21:35:25.073Z,16.10
2023-03-18T21:37:54.250Z,16.10
2023-03-18T21:40:24.001Z,16.10
2023-03-18T21:42:54.034Z,16.10
2023-03-18T21:45:24.267Z,16.10
2023-03-18T21:47:53.829Z,16.10
2023-03-18T21:50:25.256Z,16.00
2023-03-18T21:52:53.862Z,16.00
2023-03-18T21:55:23.039Z,15.90
2023-03-18T21:57:51.212Z,15.90
2023-03-18T22:00:21.825Z,15.80
2023-03-18T22:02:50.556Z,15.80
2023-03-18T22:05:22.451Z,15.80
2023-03-18T22:07:51.376Z,15.70
2023-03-18T22:10:21.412Z,15.60
2023-03-18T22:12:49.582Z,15.60
2023-03-18T22:15:40.337Z,15.60
2023-03-18T22:18:09.171Z,15.50
2023-03-18T22:20:39.755Z,15.40
2023-03-18T22:23:18.425Z,15.40
2023-03-18T22:25:47.737Z,15.40
2023-03-18T22:28:15.952Z,15.30
2023-03-18T22:30:46.109Z,15.30
2023-03-18T22:33:20.853Z,15.20
2023-03-18T22:35:50.855Z,15.20
2023-03-18T22:38:21.090Z,15.20
2023-03-18T22:40:52.157Z,15.10
2023-03-18T22:43:32.255Z,15.00
2023-03-18T22:46:01.541Z,15.00
2023-03-18T22:48:30.943Z,15.00
2023-03-18T22:51:01.356Z,14.90
2023-03-18T22:53:32.474Z,14.90
2023-03-18T22:56:06.331Z,14.80
2023-03-18T22:58:34.969Z,14.80
2023-03-18T23:01:03.661Z,14.70
2023-03-18T23:03:34.862Z,14.70
2023-03-18T23:06:05.856Z,14.70
2023-03-18T23:08:34.805Z,14.60
2023-03-18T23:11:03.453Z,14.60
2023-03-18T23:13:39.959Z,14.60
2023-03-18T23:16:10.681Z,14.60
2023-03-18T23:18:39.613Z,14.50
2023-03-18T23:21:12.131Z,14.50
2023-03-18T23:23:40.745Z,14.50
2023-03-18T23:26:08.834Z,14.40
2023-03-18T23:28:44.424Z,14.30
2023-03-18T23:31:13.580Z,14.30
2023-03-18T23:33:42.518Z,14.30
2023-03-18T23:36:12.570Z,14.20
2023-03-18T23:38:40.730Z,14.20
2023-03-18T23:41:09.702Z,14.10
2023-03-18T23:43:38.236Z,14.10
2023-03-18T23:46:07.476Z,14.10
2023-03-18T23:48:36.350Z,14.00
2023-03-18T23:51:04.490Z,14.00
2023-03-18T23:53:34.370Z,14.00
2023-03-18T23:56:02.416Z,14.00
2023-03-18T23:58:30.947Z,14.00
